Pagrindinis puslapis
METAR-TAF:

METAR-TAF

Oro uostai :

Guymon, Oklahoma, Jungtinės Amerikos Valstijos

platuma: 36-40-54N, ilguma: 101-30-19W, Aukštis: 952 m

Dabartinis oras

Ataskaita buvo paskelbta 45 minutes, ne 04:53 UTC
Vėjas 4 kt iš Pietų
Temperatūra 18°C
Drėgmė 73%
Slėgis 1021 hPa
Matomumas: 16.1 km
Giedras dangus

METAR: KGUY 220453Z AUTO 19004KT 10SM CLR 18/13 A3014 RMK AO2 SLP169 T01780128

Laikas: 00:38 (05:38 UTC)

Prognozė

Ataskaita buvo paskelbta 6 valandos ir 15 minutes, ne 23:23 UTC
Prognozė galioja nuo 22 metu 00 UTC su 22 metu 24 UTC
Vėjas 8 kt iš Rytų/Šiaurės Rytų
Matomumas: 10 km
Su prošvaistėmis ne aukštis 20000 ft
Nuo 22 metu 0100 UTC
Vėjas 7 kt iš Rytų
Matomumas: 10 km
Išsisklaidę debesys ne aukštis 25000 ft
Nuo 22 metu 1400 UTC
Vėjas 20 kt iš Pietų/Pietvakarių su gūsio iki 29 kt
Matomumas: 10 km
Giedras dangus

TAF: KGUY 212323Z 2200/2224 07008KT P6SM BKN200 FM220100 08007KT P6SM SCT250 FM221400 21020G29KT P6SM SKC

Orai ataskaitas ir orų prognozės (METAR, TAF).

turimą stotys yra geltonos ir raudonos taškus žemėlapyje.

Perkelti pele per norėdami pamatyti stoties vardą.

Tada spustelėkite, norėdami matyti oro stebėjimo ir prognozės.

Norėdami pakeisti žemėlapį: spustelėkite ant žalios mygtukų su juodo kryžiaus žemyn,; žalią mygtuką su brūkšneliu, jei norite nutolinti; arba žalių rodyklių gretimoms žemėlapius.


METAR-TAF: